Time;durP1;ratioP1;P1;durP2;ratioP2;P2;SDS_P1;SDS_P2;PMS_P1;PMS_P2;Temp;Humidity;BMP_temperature;BMP_pressure;BME280_temperature;BME280_humidity;BME280_pressure;Samples;Min_cycle;Max_cycle;Signal;HPM_P1;HPM_P2
2022/03/16 00:01:39;;;;;;;17.40;11.07;;;7.30;90.80;;;;;;5035802;28;20028;-77
2022/03/16 00:04:04;;;;;;;23.37;12.37;;;7.20;90.90;;;;;;5019393;28;20040;-77
2022/03/16 00:06:30;;;;;;;19.20;11.60;;;7.20;91.00;;;;;;5052460;28;20033;-77
2022/03/16 00:08:55;;;;;;;21.97;12.30;;;7.20;91.00;;;;;;5019791;28;20029;-77
2022/03/16 00:11:21;;;;;;;20.57;12.83;;;7.10;91.20;;;;;;5052389;28;20358;-76
2022/03/16 00:13:47;;;;;;;17.40;11.77;;;7.10;91.30;;;;;;5035276;28;20021;-76
2022/03/16 00:16:12;;;;;;;31.03;13.40;;;7.10;91.40;;;;;;5035641;28;20385;-77
2022/03/16 00:18:38;;;;;;;24.37;13.70;;;7.10;91.80;;;;;;5035404;28;20385;-76
2022/03/16 00:21:03;;;;;;;21.67;12.30;;;7.10;91.60;;;;;;5052435;28;20029;-77
2022/03/16 00:23:29;;;;;;;21.60;12.80;;;7.10;91.70;;;;;;5052067;28;20025;-77
2022/03/16 00:25:55;;;;;;;20.80;12.87;;;7.00;91.80;;;;;;5052320;28;20017;-77
2022/03/16 00:28:20;;;;;;;21.80;13.57;;;7.00;91.80;;;;;;5052259;28;20029;-77
2022/03/16 00:30:46;;;;;;;19.70;12.70;;;7.00;91.90;;;;;;5035547;28;20473;-77
2022/03/16 00:33:12;;;;;;;25.13;14.37;;;7.00;91.90;;;;;;5051924;28;20021;-77
2022/03/16 00:35:38;;;;;;;21.17;13.70;;;7.00;92.00;;;;;;5019099;28;20021;-77
2022/03/16 00:38:04;;;;;;;18.93;11.97;;;6.90;92.10;;;;;;5051926;28;20036;-77
2022/03/16 00:40:31;;;;;;;23.33;13.23;;;6.90;92.10;;;;;;5051866;28;20025;-77
2022/03/16 00:42:57;;;;;;;21.13;13.83;;;6.90;92.10;;;;;;5052243;28;20022;-77
2022/03/16 00:45:23;;;;;;;19.17;12.13;;;6.80;92.10;;;;;;5052089;28;20033;-77
2022/03/16 00:47:49;;;;;;;18.60;11.97;;;6.80;92.20;;;;;;5051758;28;20485;-77
2022/03/16 00:50:15;;;;;;;18.73;12.50;;;6.80;92.20;;;;;;5035392;28;20107;-76
2022/03/16 00:52:41;;;;;;;21.77;13.40;;;6.80;92.20;;;;;;5035110;28;20072;-77
2022/03/16 00:55:07;;;;;;;19.30;13.20;;;6.70;92.30;;;;;;5051744;28;20036;-77
2022/03/16 00:57:32;;;;;;;23.00;13.53;;;6.70;92.40;;;;;;5035115;28;20037;-77
2022/03/16 00:59:58;;;;;;;20.57;12.63;;;6.80;92.70;;;;;;5052005;28;20528;-77
2022/03/16 01:02:24;;;;;;;22.47;14.33;;;6.70;92.50;;;;;;5051916;28;20124;-77
2022/03/16 01:04:50;;;;;;;21.53;13.80;;;6.50;92.60;;;;;;5034992;28;20025;-76
2022/03/16 01:07:16;;;;;;;19.97;12.83;;;6.60;92.70;;;;;;5035087;28;20071;-77
2022/03/16 01:09:41;;;;;;;22.97;14.50;;;6.60;92.70;;;;;;5035255;28;20021;-77
2022/03/16 01:12:08;;;;;;;26.70;14.90;;;6.40;92.70;;;;;;5051371;28;20083;-77
2022/03/16 01:14:34;;;;;;;22.47;14.03;;;6.50;92.80;;;;;;5035061;28;20025;-77
2022/03/16 01:17:00;;;;;;;26.33;15.60;;;6.50;92.90;;;;;;5035087;28;20127;-77
2022/03/16 01:19:25;;;;;;;21.03;13.23;;;6.40;93.00;;;;;;5034875;28;20082;-77
2022/03/16 01:21:52;;;;;;;24.70;15.80;;;6.40;93.00;;;;;;5034719;28;20082;-76
2022/03/16 01:24:18;;;;;;;22.87;15.13;;;6.40;93.10;;;;;;5052974;28;20530;-76
2022/03/16 01:26:44;;;;;;;24.27;15.63;;;6.40;93.20;;;;;;5018532;28;20025;-77
2022/03/16 01:29:09;;;;;;;25.73;16.07;;;6.40;93.30;;;;;;5052687;28;20132;-76
2022/03/16 01:31:35;;;;;;;26.13;17.03;;;6.30;93.40;;;;;;5034979;28;20052;-77
2022/03/16 01:34:01;;;;;;;25.77;15.33;;;6.40;93.60;;;;;;5051719;28;20366;-77
2022/03/16 01:36:26;;;;;;;27.40;16.77;;;6.40;93.60;;;;;;5052744;28;20032;-77
2022/03/16 01:38:52;;;;;;;30.63;16.93;;;6.30;93.60;;;;;;5035011;28;20022;-77
2022/03/16 01:41:17;;;;;;;29.47;17.00;;;6.30;93.70;;;;;;5051374;28;20459;-77
2022/03/16 01:43:43;;;;;;;25.13;16.97;;;6.30;93.80;;;;;;5035230;28;20127;-77
2022/03/16 01:46:09;;;;;;;26.73;18.07;;;6.30;93.80;;;;;;5055103;28;20025;-76
2022/03/16 01:48:35;;;;;;;27.73;17.67;;;6.40;93.90;;;;;;5038334;28;20124;-76
2022/03/16 01:51:01;;;;;;;29.00;19.00;;;6.30;94.00;;;;;;5056127;28;20060;-76
2022/03/16 01:53:27;;;;;;;27.47;18.30;;;6.30;94.10;;;;;;5055143;28;20021;-77
2022/03/16 01:55:53;;;;;;;28.30;17.70;;;6.20;94.10;;;;;;5038242;28;20025;-77
2022/03/16 01:58:19;;;;;;;27.53;17.73;;;6.30;94.20;;;;;;5054722;28;20413;-76
2022/03/16 02:00:45;;;;;;;29.80;18.87;;;6.30;94.30;;;;;;5054928;28;20025;-77
2022/03/16 02:03:11;;;;;;;29.63;18.07;;;6.30;94.40;;;;;;5038189;28;20044;-77
2022/03/16 02:05:38;;;;;;;32.43;18.57;;;6.20;94.40;;;;;;5038361;28;20028;-77
2022/03/16 02:08:05;;;;;;;26.83;18.10;;;6.20;94.50;;;;;;5054511;28;20481;-76
2022/03/16 02:10:32;;;;;;;30.03;18.53;;;6.20;94.50;;;;;;5054385;28;20037;-77
2022/03/16 02:12:58;;;;;;;27.30;17.83;;;6.20;94.60;;;;;;5038355;28;20378;-76
2022/03/16 02:15:23;;;;;;;28.53;17.70;;;6.20;94.60;;;;;;5055408;28;20067;-77
2022/03/16 02:17:50;;;;;;;28.60;17.37;;;6.20;94.60;;;;;;5053190;28;20029;-77
2022/03/16 02:20:17;;;;;;;27.53;18.33;;;6.10;94.70;;;;;;5034348;28;20382;-77
2022/03/16 02:22:53;;;;;;;32.47;20.00;;;6.10;94.80;;;;;;5035649;28;20033;-77
2022/03/16 02:25:18;;;;;;;30.00;19.73;;;6.10;95.00;;;;;;5035815;28;20030;-77
2022/03/16 02:27:44;;;;;;;28.10;18.57;;;6.10;94.90;;;;;;5034532;28;20504;-77
2022/03/16 02:30:10;;;;;;;30.00;19.27;;;6.10;95.10;;;;;;5035393;28;20451;-77
2022/03/16 02:32:36;;;;;;;30.10;19.83;;;6.00;94.90;;;;;;5033890;28;20083;-77
2022/03/16 02:35:02;;;;;;;31.63;19.70;;;6.10;95.00;;;;;;5017888;28;20466;-77
2022/03/16 02:37:28;;;;;;;29.00;19.10;;;6.00;95.00;;;;;;5017890;28;20428;-77
2022/03/16 02:39:55;;;;;;;32.13;19.60;;;6.00;95.00;;;;;;5017609;28;20109;-77
2022/03/16 02:42:21;;;;;;;35.27;20.50;;;6.00;95.20;;;;;;5034322;28;20033;-77
2022/03/16 02:44:47;;;;;;;28.50;18.87;;;5.90;95.10;;;;;;5017913;28;20477;-76
2022/03/16 02:47:13;;;;;;;30.87;19.67;;;6.00;95.20;;;;;;5017425;28;20116;-77
2022/03/16 02:49:38;;;;;;;29.37;18.67;;;5.90;95.40;;;;;;5017303;28;20087;-77
2022/03/16 02:52:09;;;;;;;31.17;19.33;;;5.80;95.20;;;;;;5017558;28;20029;-77
2022/03/16 02:54:34;;;;;;;29.37;18.60;;;5.90;95.40;;;;;;5034881;28;20032;-77
2022/03/16 02:57:00;;;;;;;32.97;19.53;;;5.80;95.40;;;;;;5033783;28;20025;-77
2022/03/16 02:59:26;;;;;;;28.50;18.83;;;5.80;95.50;;;;;;5034732;28;20052;-77
2022/03/16 03:01:52;;;;;;;32.53;20.93;;;5.90;95.70;;;;;;5033827;28;20128;-77
2022/03/16 03:04:18;;;;;;;31.33;19.37;;;5.80;95.90;;;;;;5017139;28;20112;-77
2022/03/16 03:06:43;;;;;;;29.53;19.73;;;5.80;95.70;;;;;;5017120;28;20076;-76
2022/03/16 03:09:09;;;;;;;30.30;20.20;;;5.80;95.70;;;;;;5017229;28;20025;-76
2022/03/16 03:11:35;;;;;;;29.83;19.90;;;5.80;95.80;;;;;;5035053;28;20037;-77
2022/03/16 03:14:00;;;;;;;28.83;19.83;;;5.80;95.80;;;;;;5034906;28;20030;-76
2022/03/16 03:16:26;;;;;;;37.50;21.63;;;5.80;95.90;;;;;;5016916;28;20048;-76
2022/03/16 03:18:52;;;;;;;30.00;20.80;;;5.80;96.00;;;;;;5033309;28;20513;-76
2022/03/16 03:21:17;;;;;;;32.47;21.17;;;5.70;96.00;;;;;;5016943;28;20040;-77
2022/03/16 03:23:43;;;;;;;31.23;21.13;;;5.80;96.00;;;;;;5033719;28;20072;-76
2022/03/16 03:26:09;;;;;;;34.40;22.47;;;5.80;96.10;;;;;;5033396;28;20037;-76
2022/03/16 03:28:34;;;;;;;34.63;20.40;;;5.70;96.10;;;;;;5033358;28;20128;-76
2022/03/16 03:31:00;;;;;;;34.83;20.97;;;5.80;96.10;;;;;;5033108;28;20034;-76
2022/03/16 03:33:25;;;;;;;33.27;21.90;;;5.70;96.10;;;;;;5016809;28;20055;-77
2022/03/16 03:35:51;;;;;;;36.40;23.27;;;5.70;96.20;;;;;;5023120;28;20021;-77
2022/03/16 03:38:17;;;;;;;38.43;23.40;;;5.70;96.30;;;;;;5036193;28;20098;-76
2022/03/16 03:40:44;;;;;;;38.07;23.00;;;5.70;96.30;;;;;;5052790;28;20036;-77
2022/03/16 03:43:09;;;;;;;37.97;24.07;;;5.60;96.30;;;;;;5051805;28;20021;-77
2022/03/16 03:45:35;;;;;;;37.70;24.60;;;5.70;96.40;;;;;;5019806;28;20020;-76
2022/03/16 03:48:01;;;;;;;35.27;24.53;;;5.60;96.40;;;;;;5019672;28;20060;-76
2022/03/16 03:50:26;;;;;;;39.57;24.40;;;5.60;96.50;;;;;;5052844;28;20123;-77
2022/03/16 03:52:52;;;;;;;35.23;23.80;;;5.70;96.50;;;;;;5052721;28;20025;-76
2022/03/16 03:55:18;;;;;;;40.57;24.90;;;5.70;96.60;;;;;;5052880;28;20107;-76
2022/03/16 03:57:44;;;;;;;38.43;26.03;;;5.60;96.60;;;;;;5035949;28;20072;-77
2022/03/16 04:00:10;;;;;;;34.93;23.43;;;5.60;96.60;;;;;;5052482;28;20119;-77
2022/03/16 04:02:35;;;;;;;39.87;24.73;;;5.60;96.90;;;;;;5035979;28;20445;-76
2022/03/16 04:05:05;;;;;;;40.63;26.33;;;5.60;96.80;;;;;;5036060;28;20039;-76
2022/03/16 04:07:30;;;;;;;35.70;23.63;;;5.60;96.80;;;;;;5018975;28;20108;-76
2022/03/16 04:09:56;;;;;;;38.93;24.93;;;5.50;96.80;;;;;;5052222;28;20033;-76
2022/03/16 04:12:21;;;;;;;39.67;24.83;;;5.60;96.90;;;;;;5019433;28;20478;-76
2022/03/16 04:14:47;;;;;;;38.90;24.13;;;5.50;96.80;;;;;;5019213;28;20021;-76
2022/03/16 04:17:13;;;;;;;40.73;25.60;;;5.50;96.90;;;;;;5053217;28;20036;-76
2022/03/16 04:19:38;;;;;;;40.40;25.83;;;5.60;96.90;;;;;;5035450;28;20060;-77
2022/03/16 04:22:04;;;;;;;35.80;25.27;;;5.50;96.90;;;;;;5019326;28;20044;-76
2022/03/16 04:24:30;;;;;;;39.90;25.50;;;5.50;97.20;;;;;;5053580;28;20517;-77
2022/03/16 04:26:55;;;;;;;36.70;24.27;;;5.60;97.00;;;;;;5053231;28;20028;-76
2022/03/16 04:29:21;;;;;;;38.27;24.57;;;5.50;97.00;;;;;;5035385;28;20021;-77
2022/03/16 04:31:46;;;;;;;40.23;24.77;;;5.50;97.00;;;;;;5035687;28;20176;-77
2022/03/16 04:34:12;;;;;;;37.50;24.90;;;5.40;97.00;;;;;;5035397;28;20025;-77
2022/03/16 04:36:38;;;;;;;35.20;24.27;;;5.50;97.10;;;;;;5035213;28;20029;-76
2022/03/16 04:39:03;;;;;;;39.83;23.70;;;5.50;97.10;;;;;;5051850;28;20056;-77
2022/03/16 04:41:29;;;;;;;37.00;24.50;;;5.50;97.10;;;;;;5051973;28;20059;-76
2022/03/16 04:43:55;;;;;;;38.70;25.40;;;5.50;97.20;;;;;;5053099;28;20417;-77
2022/03/16 04:46:20;;;;;;;39.57;25.33;;;5.40;97.20;;;;;;5019188;28;20021;-76
2022/03/16 04:48:46;;;;;;;37.10;24.67;;;5.50;97.20;;;;;;5053311;28;20040;-77
2022/03/16 04:51:12;;;;;;;37.03;24.27;;;5.40;97.30;;;;;;5035204;28;20078;-76
2022/03/16 04:53:38;;;;;;;37.87;23.23;;;5.50;97.30;;;;;;5052436;28;20107;-77
2022/03/16 04:56:04;;;;;;;34.20;22.90;;;5.40;97.60;;;;;;5018940;28;20155;-77
2022/03/16 04:58:31;;;;;;;40.03;24.00;;;5.40;97.30;;;;;;5035041;28;20078;-77
2022/03/16 05:00:57;;;;;;;37.80;24.53;;;5.40;97.30;;;;;;5019205;28;20029;-77
2022/03/16 05:03:23;;;;;;;35.33;22.10;;;5.40;97.40;;;;;;5019371;28;20392;-76
2022/03/16 05:05:48;;;;;;;38.43;24.33;;;5.40;97.40;;;;;;5035589;28;20029;-77
2022/03/16 05:08:14;;;;;;;35.30;22.97;;;5.40;97.50;;;;;;5051962;28;20049;-77
2022/03/16 05:10:40;;;;;;;35.87;23.47;;;5.60;97.60;;;;;;5051805;28;20040;-76
2022/03/16 05:13:05;;;;;;;33.93;20.67;;;5.40;97.50;;;;;;5051754;28;20400;-77
2022/03/16 05:15:31;;;;;;;33.00;21.00;;;5.40;97.50;;;;;;5034987;28;20119;-77
2022/03/16 05:17:57;;;;;;;31.60;21.17;;;5.40;97.60;;;;;;5034869;28;20053;-77
2022/03/16 05:20:22;;;;;;;29.17;19.00;;;5.40;97.60;;;;;;5021967;28;20370;-77
2022/03/16 05:22:53;;;;;;;31.60;19.67;;;5.40;97.60;;;;;;5022235;28;20039;-76
2022/03/16 05:25:21;;;;;;;32.17;19.87;;;5.40;97.60;;;;;;5056408;28;20033;-77
2022/03/16 05:27:47;;;;;;;30.27;19.43;;;5.40;97.70;;;;;;5057105;28;20039;-77
2022/03/16 05:30:13;;;;;;;28.20;18.40;;;5.40;98.00;;;;;;5047608;28;20033;-76
2022/03/16 05:32:41;;;;;;;31.37;19.20;;;5.50;97.80;;;;;;5050151;28;20029;-77
2022/03/16 05:35:07;;;;;;;31.40;19.70;;;5.50;97.70;;;;;;5035202;28;20056;-77
2022/03/16 05:37:33;;;;;;;30.27;20.00;;;5.50;97.60;;;;;;5036576;28;20037;-76
2022/03/16 05:39:59;;;;;;;29.07;19.70;;;5.50;97.60;;;;;;5035067;28;20025;-76
2022/03/16 05:42:25;;;;;;;30.83;18.83;;;5.50;97.60;;;;;;5037991;28;20037;-76
2022/03/16 05:44:54;;;;;;;26.33;18.60;;;5.50;97.60;;;;;;5035116;28;20122;-75
2022/03/16 05:47:21;;;;;;;29.10;18.77;;;5.40;97.60;;;;;;5035053;28;20026;-76
2022/03/16 05:49:48;;;;;;;27.47;18.20;;;5.40;97.60;;;;;;5002260;28;20037;-75
2022/03/16 05:52:15;;;;;;;32.07;19.13;;;5.40;97.60;;;;;;5035152;28;20040;-75
2022/03/16 05:54:41;;;;;;;28.83;18.67;;;5.30;97.60;;;;;;5002866;28;20036;-76
2022/03/16 05:57:07;;;;;;;29.37;19.23;;;5.40;97.90;;;;;;5052052;28;20378;-75
2022/03/16 05:59:32;;;;;;;30.43;18.83;;;5.30;97.60;;;;;;5055289;28;20049;-76
2022/03/16 06:01:58;;;;;;;31.53;20.60;;;5.50;97.70;;;;;;5037942;28;20032;-77
2022/03/16 06:04:23;;;;;;;32.60;20.50;;;5.30;97.70;;;;;;5037864;28;20028;-77
2022/03/16 06:06:49;;;;;;;33.13;21.13;;;5.40;97.70;;;;;;5038104;28;20029;-78
2022/03/16 06:09:15;;;;;;;31.83;19.90;;;5.20;97.70;;;;;;5021522;28;20035;-75
2022/03/16 06:11:41;;;;;;;32.40;20.43;;;5.30;97.70;;;;;;5055610;28;20102;-76
2022/03/16 06:14:07;;;;;;;30.43;20.60;;;5.20;97.70;;;;;;5052201;28;20028;-78
2022/03/16 06:16:32;;;;;;;33.20;22.07;;;5.20;97.80;;;;;;5051021;28;20025;-77
2022/03/16 06:18:58;;;;;;;32.30;21.50;;;5.30;97.80;;;;;;5034301;28;20469;-77
2022/03/16 06:21:23;;;;;;;37.57;22.20;;;5.20;97.80;;;;;;5028454;28;20045;-78
2022/03/16 06:23:49;;;;;;;36.07;22.00;;;5.20;97.90;;;;;;5029563;28;20061;-76
2022/03/16 06:26:15;;;;;;;37.17;24.10;;;5.30;97.90;;;;;;5043859;28;20030;-78
2022/03/16 06:28:40;;;;;;;33.77;23.77;;;5.30;97.90;;;;;;5034216;28;20375;-76
2022/03/16 06:31:06;;;;;;;34.57;23.40;;;5.30;98.30;;;;;;5036983;28;20108;-75
2022/03/16 06:33:32;;;;;;;39.40;24.30;;;5.30;98.10;;;;;;5037083;28;20087;-75
2022/03/16 06:35:57;;;;;;;35.53;23.40;;;5.40;98.10;;;;;;5046335;28;20427;-75
2022/03/16 06:38:23;;;;;;;40.83;25.57;;;5.30;98.10;;;;;;5033306;28;20028;-76
2022/03/16 06:40:49;;;;;;;34.57;24.03;;;5.30;98.20;;;;;;5040962;28;20065;-75
2022/03/16 06:43:14;;;;;;;40.87;27.00;;;5.30;98.30;;;;;;5016852;28;20030;-76
2022/03/16 06:45:40;;;;;;;37.43;24.80;;;5.30;98.30;;;;;;5033941;28;20527;-76
2022/03/16 06:48:05;;;;;;;36.30;24.03;;;5.60;98.70;;;;;;5061720;28;20078;-76
2022/03/16 06:50:31;;;;;;;47.20;25.60;;;5.40;98.40;;;;;;5056820;28;20503;-76
2022/03/16 06:52:58;;;;;;;40.37;23.93;;;5.50;98.40;;;;;;5073376;28;20023;-76
2022/03/16 06:55:24;;;;;;;37.67;24.13;;;5.60;98.50;;;;;;5049553;28;20100;-76
2022/03/16 06:57:49;;;;;;;35.07;22.67;;;5.60;98.50;;;;;;5017033;28;20081;-75
2022/03/16 07:00:16;;;;;;;37.53;24.57;;;5.60;98.60;;;;;;5033450;28;20022;-76
2022/03/16 07:03:11;;;;;;;34.20;21.87;;;5.70;98.60;;;;;;5036491;28;20033;-76
2022/03/16 07:05:39;;;;;;;34.10;23.03;;;5.80;98.70;;;;;;5043987;28;20064;-76
2022/03/16 07:08:10;;;;;;;31.97;21.60;;;5.80;98.60;;;;;;5051484;28;20033;-76
2022/03/16 07:10:38;;;;;;;36.50;22.30;;;5.90;98.70;;;;;;5052335;28;20070;-76
2022/03/16 07:13:04;;;;;;;34.27;23.10;;;5.90;98.70;;;;;;5036634;28;20370;-76
2022/03/16 07:15:31;;;;;;;32.50;22.40;;;6.00;98.70;;;;;;5054197;28;20032;-74
2022/03/16 07:17:58;;;;;;;36.77;21.60;;;6.00;98.70;;;;;;5036553;28;20099;-76
2022/03/16 07:20:24;;;;;;;34.80;22.87;;;6.10;98.80;;;;;;5053915;28;20025;-76
2022/03/16 07:23:12;;;;;;;30.00;21.07;;;6.20;98.80;;;;;;5052555;28;20021;-76
2022/03/16 07:25:41;;;;;;;35.37;22.80;;;6.20;98.80;;;;;;5052807;28;20112;-75
2022/03/16 07:28:07;;;;;;;32.20;19.77;;;6.30;98.80;;;;;;5053711;28;20523;-76
2022/03/16 07:30:33;;;;;;;35.40;23.47;;;6.40;98.70;;;;;;5052750;28;20123;-75
2022/03/16 07:32:59;;;;;;;31.40;21.07;;;6.50;98.80;;;;;;5052716;28;20168;-76
2022/03/16 07:35:26;;;;;;;36.70;22.07;;;6.50;98.70;;;;;;5019521;28;20021;-76
2022/03/16 07:37:53;;;;;;;32.83;19.83;;;6.60;98.60;;;;;;5036319;28;20061;-75
2022/03/16 07:40:19;;;;;;;31.63;20.87;;;6.60;98.60;;;;;;5053586;28;20369;-75
2022/03/16 07:42:46;;;;;;;31.83;21.67;;;6.60;98.50;;;;;;5051592;28;20032;-75
2022/03/16 07:45:15;;;;;;;31.37;21.00;;;6.70;98.50;;;;;;5052360;28;20094;-76
2022/03/16 07:47:41;;;;;;;34.20;22.47;;;6.80;98.40;;;;;;5047988;28;20036;-75
2022/03/16 07:50:08;;;;;;;34.40;22.60;;;6.90;98.40;;;;;;5035278;28;20029;-75
2022/03/16 07:52:34;;;;;;;31.77;21.30;;;7.00;98.30;;;;;;5035961;28;20037;-76
2022/03/16 07:54:59;;;;;;;33.73;21.83;;;7.00;98.20;;;;;;5035834;28;20032;-77
2022/03/16 07:57:25;;;;;;;26.70;19.63;;;7.10;98.20;;;;;;5053417;28;20037;-76
2022/03/16 07:59:51;;;;;;;29.80;20.30;;;7.10;98.10;;;;;;5036091;28;20102;-77
2022/03/16 08:02:17;;;;;;;30.67;19.67;;;7.10;98.00;;;;;;5035373;28;20037;-77
2022/03/16 08:04:43;;;;;;;29.83;19.43;;;7.20;98.00;;;;;;5052842;28;20431;-77
2022/03/16 08:07:11;;;;;;;28.43;19.60;;;7.30;98.00;;;;;;5053507;28;20111;-77
2022/03/16 08:09:37;;;;;;;28.70;19.30;;;7.30;97.90;;;;;;5035991;28;20435;-77
2022/03/16 08:12:03;;;;;;;29.67;18.47;;;7.40;97.90;;;;;;5053397;28;20100;-77
2022/03/16 08:14:29;;;;;;;24.73;17.23;;;7.50;97.80;;;;;;5035613;28;20045;-77
2022/03/16 08:16:54;;;;;;;24.43;16.97;;;7.60;97.70;;;;;;5035499;28;20478;-77
2022/03/16 08:19:21;;;;;;;23.00;16.23;;;7.70;97.70;;;;;;5035816;28;20028;-77
2022/03/16 08:21:47;;;;;;;22.80;17.17;;;7.80;97.70;;;;;;5031060;28;20496;-77
2022/03/16 08:24:13;;;;;;;25.13;16.40;;;7.90;97.60;;;;;;5048368;28;20548;-76
2022/03/16 08:26:40;;;;;;;25.33;15.90;;;8.00;97.50;;;;;;5033307;28;20196;-76
2022/03/16 08:29:05;;;;;;;21.80;15.13;;;8.10;97.40;;;;;;5031949;28;20022;-76
2022/03/16 08:31:31;;;;;;;22.63;14.67;;;8.30;97.40;;;;;;5031899;28;20129;-76
2022/03/16 08:33:57;;;;;;;21.40;14.13;;;8.40;97.20;;;;;;5032043;28;20025;-76
2022/03/16 08:36:22;;;;;;;20.17;13.23;;;8.60;97.00;;;;;;5016372;28;20030;-77
2022/03/16 08:38:48;;;;;;;17.03;12.13;;;8.70;96.60;;;;;;5041268;28;20032;-78
2022/03/16 08:41:14;;;;;;;17.20;11.27;;;8.90;96.40;;;;;;5031861;28;20030;-77
2022/03/16 08:43:40;;;;;;;18.63;13.20;;;8.90;96.10;;;;;;4999289;28;20040;-74
2022/03/16 08:46:06;;;;;;;20.70;12.47;;;9.00;95.80;;;;;;5015507;28;20030;-74
2022/03/16 08:48:32;;;;;;;19.07;12.23;;;9.20;95.40;;;;;;5036559;28;20423;-75
2022/03/16 08:50:57;;;;;;;18.27;11.07;;;9.20;95.30;;;;;;5053159;28;20021;-75
2022/03/16 08:53:24;;;;;;;19.27;11.67;;;9.30;95.00;;;;;;5054887;28;20029;-76
2022/03/16 08:55:50;;;;;;;17.60;10.67;;;9.40;94.80;;;;;;5056253;28;20032;-77
2022/03/16 08:58:16;;;;;;;19.77;11.77;;;9.50;94.50;;;;;;5056157;28;20021;-77
2022/03/16 09:00:42;;;;;;;22.50;11.43;;;9.70;94.00;;;;;;5056956;28;20052;-77
2022/03/16 09:03:08;;;;;;;19.80;11.40;;;9.70;93.50;;;;;;5057047;28;20078;-77
2022/03/16 09:05:34;;;;;;;17.67;12.00;;;9.80;92.80;;;;;;5055770;28;20533;-77
2022/03/16 09:08:00;;;;;;;17.97;11.30;;;9.80;92.60;;;;;;5055835;28;20142;-77
2022/03/16 09:10:26;;;;;;;16.80;10.57;;;9.90;92.00;;;;;;5056853;28;20025;-78
2022/03/16 09:12:52;;;;;;;15.80;10.43;;;10.00;92.00;;;;;;5055893;28;20029;-77
2022/03/16 09:15:18;;;;;;;14.90;9.80;;;10.10;91.90;;;;;;5055738;28;20021;-77
2022/03/16 09:17:44;;;;;;;19.20;10.57;;;10.20;91.40;;;;;;5034889;28;20034;-78
2022/03/16 09:20:09;;;;;;;17.00;10.97;;;10.20;90.70;;;;;;5055401;28;20025;-77
2022/03/16 09:22:35;;;;;;;16.57;10.30;;;10.30;90.30;;;;;;5055667;28;20028;-77
2022/03/16 09:25:01;;;;;;;16.87;11.27;;;10.30;90.10;;;;;;5056857;28;20055;-78
2022/03/16 09:27:27;;;;;;;15.20;10.33;;;10.40;89.90;;;;;;5038821;28;20499;-77
2022/03/16 09:29:55;;;;;;;21.13;10.30;;;10.40;89.60;;;;;;5056597;28;20408;-78
2022/03/16 09:32:24;;;;;;;16.67;10.93;;;10.40;88.90;;;;;;5055210;28;20101;-77
2022/03/16 09:34:50;;;;;;;16.13;10.75;;;10.40;89.70;;;;;;5053715;28;20079;-77
2022/03/16 09:37:16;;;;;;;16.70;10.50;;;10.50;89.20;;;;;;5054982;28;20047;-77
2022/03/16 09:39:42;;;;;;;15.73;10.57;;;10.60;89.00;;;;;;5022316;28;20041;-78
2022/03/16 09:42:09;;;;;;;16.73;9.68;;;10.50;88.90;;;;;;5038283;28;20473;-78
2022/03/16 09:44:36;;;;;;;18.03;11.07;;;10.70;88.90;;;;;;5050145;28;20031;-78
2022/03/16 09:47:03;;;;;;;19.58;11.55;;;10.80;88.40;;;;;;5036319;28;20030;-78
2022/03/16 09:49:29;;;;;;;18.30;10.83;;;10.80;87.50;;;;;;5036157;28;20453;-78
2022/03/16 09:51:56;;;;;;;21.75;11.40;;;10.90;86.70;;;;;;5034980;28;20398;-77
2022/03/16 09:54:23;;;;;;;18.73;11.35;;;10.90;86.30;;;;;;5034828;28;20413;-77
2022/03/16 09:56:48;;;;;;;18.73;10.85;;;11.00;86.50;;;;;;5018296;28;20045;-79
2022/03/16 09:59:17;;;;;;;18.02;11.05;;;11.00;85.80;;;;;;5018058;28;20497;-80
2022/03/16 10:01:43;;;;;;;16.60;9.93;;;11.10;85.40;;;;;;5034887;28;20033;-80
2022/03/16 10:04:09;;;;;;;15.93;9.73;;;11.20;85.70;;;;;;5034633;28;20033;-78
2022/03/16 10:06:43;;;;;;;17.88;10.75;;;11.30;85.50;;;;;;5035873;28;20040;-79
2022/03/16 10:15:00;;;;;;;14.82;9.45;;;12.30;84.40;;;;;;5035164;28;20063;-78
2022/03/16 10:17:45;;;;;;;13.60;8.65;;;12.80;83.90;;;;;;5035581;28;20112;-81
2022/03/16 10:20:21;;;;;;;12.57;8.15;;;13.20;84.60;;;;;;5028140;28;20112;-81
2022/03/16 10:22:58;;;;;;;13.48;8.35;;;14.00;84.10;;;;;;5052050;28;20021;-80
2022/03/16 10:25:25;;;;;;;9.60;6.10;;;14.80;82.50;;;;;;5054733;28;20017;-80
2022/03/16 10:27:51;;;;;;;9.75;6.38;;;15.50;82.20;;;;;;5035204;28;20548;-80
2022/03/16 10:30:16;;;;;;;11.10;6.75;;;16.30;80.70;;;;;;5035756;28;20033;-80
2022/03/16 10:32:54;;;;;;;8.38;5.45;;;17.00;78.50;;;;;;5051416;28;20402;-82
2022/03/16 10:35:21;;;;;;;8.02;5.72;;;17.80;74.10;;;;;;5054276;28;20100;-81
2022/03/16 10:37:49;;;;;;;7.13;4.88;;;18.50;68.70;;;;;;5055195;28;20473;-81
2022/03/16 10:40:20;;;;;;;7.50;5.22;;;19.10;65.40;;;;;;5054477;28;20037;-81
2022/03/16 10:48:21;;;;;;;6.78;4.22;;;20.40;55.60;;;;;;5054667;28;20044;-82
2022/03/16 10:50:50;;;;;;;7.38;5.75;;;20.90;54.70;;;;;;5053376;28;20360;-81
2022/03/16 10:53:17;;;;;;;9.00;5.03;;;21.20;52.00;;;;;;5053847;28;20018;-80
2022/03/16 10:55:45;;;;;;;6.55;4.75;;;21.40;50.90;;;;;;5054693;28;20021;-81
2022/03/16 10:58:14;;;;;;;5.75;4.10;;;21.80;50.10;;;;;;5036742;28;20434;-80
2022/03/16 11:00:41;;;;;;;7.93;4.00;;;22.10;49.70;;;;;;5053257;28;20437;-81
2022/03/16 11:03:09;;;;;;;4.75;3.33;;;22.50;49.60;;;;;;5053512;28;20087;-81
2022/03/16 11:05:39;;;;;;;5.00;3.67;;;22.90;48.60;;;;;;5053662;28;20116;-81
2022/03/16 11:08:08;;;;;;;7.05;3.42;;;23.20;47.30;;;;;;5054444;28;20060;-81
2022/03/16 11:10:36;;;;;;;6.38;3.95;;;23.50;46.30;;;;;;5049712;28;20120;-85
2022/03/16 11:15:50;;;;;;;6.18;4.00;;;24.00;44.70;;;;;;5054294;28;20555;-81
2022/03/16 11:18:19;;;;;;;3.90;2.90;;;24.30;44.10;;;;;;5052857;28;20051;-82
2022/03/16 11:20:51;;;;;;;5.03;3.67;;;24.60;43.90;;;;;;5052740;28;20087;-81
2022/03/16 11:26:37;;;;;;;5.72;2.95;;;25.30;43.10;;;;;;5053964;28;20524;-82
2022/03/16 11:29:23;;;;;;;5.30;3.38;;;25.60;41.80;;;;;;5053153;28;20036;-81
2022/03/16 11:31:49;;;;;;;4.47;3.05;;;25.80;41.40;;;;;;5053940;28;20075;-82
2022/03/16 11:34:24;;;;;;;5.10;3.10;;;26.00;40.90;;;;;;5036515;28;20032;-82
2022/03/16 11:37:02;;;;;;;4.75;2.70;;;26.20;40.10;;;;;;5036209;28;20018;-80
2022/03/16 11:39:41;;;;;;;6.13;3.90;;;26.40;39.90;;;;;;5052807;28;20025;-83
2022/03/16 11:42:07;;;;;;;5.47;3.60;;;26.60;38.80;;;;;;5052846;28;20029;-80
2022/03/16 11:44:34;;;;;;;8.88;3.58;;;26.70;38.90;;;;;;5052724;28;20033;-82
2022/03/16 11:47:09;;;;;;;5.70;3.08;;;26.70;38.10;;;;;;5052453;28;20482;-81
2022/03/16 11:49:38;;;;;;;4.97;3.30;;;26.60;37.20;;;;;;5052910;28;20110;-81
2022/03/16 11:52:05;;;;;;;4.35;2.75;;;26.40;36.90;;;;;;5036155;28;20044;-81
2022/03/16 11:54:52;;;;;;;4.88;3.25;;;26.40;36.90;;;;;;5052406;28;20890;-81
2022/03/16 11:57:51;;;;;;;5.75;3.33;;;26.40;36.70;;;;;;5036899;28;20419;-81
2022/03/16 12:00:17;;;;;;;5.22;3.40;;;26.40;36.20;;;;;;5052303;28;20045;-80
2022/03/16 12:02:58;;;;;;;4.57;2.33;;;26.50;36.40;;;;;;5052507;28;20067;-83
2022/03/16 12:05:26;;;;;;;6.07;4.18;;;26.40;36.20;;;;;;5053645;28;20028;-82
2022/03/16 12:08:12;;;;;;;8.20;3.53;;;25.90;35.50;;;;;;5052165;28;20020;-84
2022/03/16 12:12:50;;;;;;;6.35;3.72;;;25.30;35.70;;;;;;5052138;28;20025;-81
2022/03/16 12:13:42;;;;;;;5.45;3.80;;;24.80;36.50;;;;;;5053491;28;20036;-81
2022/03/16 12:16:07;;;;;;;6.88;4.47;;;24.30;37.40;;;;;;5052412;28;20021;-86
2022/03/16 12:18:39;;;;;;;8.48;5.05;;;24.10;37.10;;;;;;5035691;28;20472;-84
2022/03/16 12:21:07;;;;;;;8.98;4.63;;;23.90;37.40;;;;;;5052530;28;20017;-83
2022/03/16 12:23:54;;;;;;;7.32;3.58;;;23.60;37.80;;;;;;5053367;28;20029;-82
2022/03/16 12:26:24;;;;;;;6.28;4.20;;;23.60;38.20;;;;;;5051818;28;20044;-82
2022/03/16 12:28:56;;;;;;;5.57;3.70;;;23.60;38.20;;;;;;5051642;28;20033;-82
2022/03/16 12:31:22;;;;;;;5.15;3.88;;;23.50;38.40;;;;;;5020650;28;20029;-80
2022/03/16 12:33:58;;;;;;;6.25;3.80;;;23.50;38.70;;;;;;5018989;28;20031;-83
2022/03/16 12:36:30;;;;;;;4.70;3.22;;;23.70;38.80;;;;;;5051896;28;20024;-81
2022/03/16 12:39:00;;;;;;;5.85;4.05;;;23.80;38.60;;;;;;5053082;28;20116;-80
2022/03/16 12:44:13;;;;;;;4.53;3.47;;;24.00;38.60;;;;;;5052608;28;20027;-81
2022/03/16 12:46:52;;;;;;;7.05;4.40;;;23.90;38.70;;;;;;5048459;28;20030;-82
2022/03/16 12:49:20;;;;;;;6.60;4.43;;;23.90;38.60;;;;;;5033168;28;20075;-83
2022/03/16 12:52:01;;;;;;;9.15;5.70;;;23.70;38.70;;;;;;5033926;28;20025;-83
2022/03/16 12:54:29;;;;;;;13.70;5.72;;;23.40;38.90;;;;;;5042237;28;20112;-82
2022/03/16 12:57:01;;;;;;;7.32;4.82;;;23.10;39.20;;;;;;5051753;28;20044;-86
2022/03/16 12:59:31;;;;;;;10.13;5.20;;;22.80;39.70;;;;;;5045794;28;20050;-81